sensor_id;sensor_type;location;lat;lon;timestamp;temperature;humidity
27423;DHT22;14878;50.778;0.258;2022-09-09T00:00:19;16.30;99.90
27423;DHT22;14878;50.778;0.258;2022-09-09T00:02:34;16.20;99.90
27423;DHT22;14878;50.778;0.258;2022-09-09T00:03:45;16.00;99.90
27423;DHT22;14878;50.778;0.258;2022-09-09T00:06:13;16.40;99.90
27423;DHT22;14878;50.778;0.258;2022-09-09T00:09:10;16.40;99.90
27423;DHT22;14878;50.778;0.258;2022-09-09T00:11:26;16.40;99.90
27423;DHT22;14878;50.778;0.258;2022-09-09T00:13:52;16.40;99.90
27423;DHT22;14878;50.778;0.258;2022-09-09T00:15:00;16.40;99.90
27423;DHT22;14878;50.778;0.258;2022-09-09T00:16:24;16.40;99.90
27423;DHT22;14878;50.778;0.258;2022-09-09T00:17:48;16.50;99.90
27423;DHT22;14878;50.778;0.258;2022-09-09T00:21:36;16.60;99.90
27423;DHT22;14878;50.778;0.258;2022-09-09T00:22:40;16.60;99.90
27423;DHT22;14878;50.778;0.258;2022-09-09T00:23:55;16.70;99.90
27423;DHT22;14878;50.778;0.258;2022-09-09T00:25:08;16.60;99.90
27423;DHT22;14878;50.778;0.258;2022-09-09T00:26:40;16.60;99.90
27423;DHT22;14878;50.778;0.258;2022-09-09T00:27:48;16.40;99.90
27423;DHT22;14878;50.778;0.258;2022-09-09T00:30:23;16.60;99.90
27423;DHT22;14878;50.778;0.258;2022-09-09T00:31:27;16.60;99.90
27423;DHT22;14878;50.778;0.258;2022-09-09T00:32:30;16.60;99.90
27423;DHT22;14878;50.778;0.258;2022-09-09T00:33:32;16.50;99.90
27423;DHT22;14878;50.778;0.258;2022-09-09T00:34:33;16.50;99.90
27423;DHT22;14878;50.778;0.258;2022-09-09T00:35:42;16.20;99.90
27423;DHT22;14878;50.778;0.258;2022-09-09T00:36:45;16.30;99.90
27423;DHT22;14878;50.778;0.258;2022-09-09T00:37:51;16.40;99.90
27423;DHT22;14878;50.778;0.258;2022-09-09T00:38:57;15.70;99.90
27423;DHT22;14878;50.778;0.258;2022-09-09T00:40:02;16.40;99.90
27423;DHT22;14878;50.778;0.258;2022-09-09T00:42:29;16.40;99.90
27423;DHT22;14878;50.778;0.258;2022-09-09T00:43:36;16.50;99.90
27423;DHT22;14878;50.778;0.258;2022-09-09T00:44:38;16.40;99.90
27423;DHT22;14878;50.778;0.258;2022-09-09T00:47:51;16.30;99.90
27423;DHT22;14878;50.778;0.258;2022-09-09T00:56:46;16.40;99.90
27423;DHT22;14878;50.778;0.258;2022-09-09T00:57:51;16.10;99.90
27423;DHT22;14878;50.778;0.258;2022-09-09T01:01:21;16.30;99.90
27423;DHT22;14878;50.778;0.258;2022-09-09T01:02:41;16.00;99.90
27423;DHT22;14878;50.778;0.258;2022-09-09T01:03:54;15.80;99.90
27423;DHT22;14878;50.778;0.258;2022-09-09T01:05:04;15.80;99.90
27423;DHT22;14878;50.778;0.258;2022-09-09T01:06:15;15.70;99.90
27423;DHT22;14878;50.778;0.258;2022-09-09T01:07:18;15.60;99.90
27423;DHT22;14878;50.778;0.258;2022-09-09T01:09:58;15.50;99.90
27423;DHT22;14878;50.778;0.258;2022-09-09T01:10:59;15.20;99.90
27423;DHT22;14878;50.778;0.258;2022-09-09T01:12:15;15.60;99.90
27423;DHT22;14878;50.778;0.258;2022-09-09T01:13:26;16.00;99.90
27423;DHT22;14878;50.778;0.258;2022-09-09T01:15:39;15.10;99.90
27423;DHT22;14878;50.778;0.258;2022-09-09T01:16:42;15.80;99.90
27423;DHT22;14878;50.778;0.258;2022-09-09T01:17:48;15.70;99.90
27423;DHT22;14878;50.778;0.258;2022-09-09T01:18:52;15.60;99.90
27423;DHT22;14878;50.778;0.258;2022-09-09T01:22:37;15.80;99.90
27423;DHT22;14878;50.778;0.258;2022-09-09T01:26:02;15.80;99.90
27423;DHT22;14878;50.778;0.258;2022-09-09T01:27:06;16.10;99.90
27423;DHT22;14878;50.778;0.258;2022-09-09T01:28:13;15.70;99.90
27423;DHT22;14878;50.778;0.258;2022-09-09T01:29:18;15.70;99.90
27423;DHT22;14878;50.778;0.258;2022-09-09T01:30:19;15.90;99.90
27423;DHT22;14878;50.778;0.258;2022-09-09T01:31:38;16.00;99.90
27423;DHT22;14878;50.778;0.258;2022-09-09T01:32:50;15.90;99.90
27423;DHT22;14878;50.778;0.258;2022-09-09T01:33:53;15.60;99.90
27423;DHT22;14878;50.778;0.258;2022-09-09T01:34:54;16.20;99.90
27423;DHT22;14878;50.778;0.258;2022-09-09T01:36:09;15.90;99.90
27423;DHT22;14878;50.778;0.258;2022-09-09T01:37:12;16.00;99.90
27423;DHT22;14878;50.778;0.258;2022-09-09T01:38:14;15.90;99.90
27423;DHT22;14878;50.778;0.258;2022-09-09T01:39:15;15.80;99.90
27423;DHT22;14878;50.778;0.258;2022-09-09T01:40:16;15.90;99.90
27423;DHT22;14878;50.778;0.258;2022-09-09T01:41:17;15.70;99.90
27423;DHT22;14878;50.778;0.258;2022-09-09T01:42:17;16.00;99.90
27423;DHT22;14878;50.778;0.258;2022-09-09T01:43:22;15.90;99.90
27423;DHT22;14878;50.778;0.258;2022-09-09T01:44:25;15.90;99.90
27423;DHT22;14878;50.778;0.258;2022-09-09T01:45:26;15.90;99.90
27423;DHT22;14878;50.778;0.258;2022-09-09T01:46:28;16.00;99.90
27423;DHT22;14878;50.778;0.258;2022-09-09T01:47:29;16.00;99.90
27423;DHT22;14878;50.778;0.258;2022-09-09T01:48:32;15.90;99.90
27423;DHT22;14878;50.778;0.258;2022-09-09T01:49:33;15.90;99.90
27423;DHT22;14878;50.778;0.258;2022-09-09T01:50:34;15.90;99.90
27423;DHT22;14878;50.778;0.258;2022-09-09T01:51:36;15.80;99.90
27423;DHT22;14878;50.778;0.258;2022-09-09T01:52:39;15.90;99.90
27423;DHT22;14878;50.778;0.258;2022-09-09T01:53:41;15.90;99.90
27423;DHT22;14878;50.778;0.258;2022-09-09T01:54:42;15.70;99.90
27423;DHT22;14878;50.778;0.258;2022-09-09T01:56:00;15.60;99.90
27423;DHT22;14878;50.778;0.258;2022-09-09T01:57:11;15.80;99.90
27423;DHT22;14878;50.778;0.258;2022-09-09T02:03:47;15.90;99.90
27423;DHT22;14878;50.778;0.258;2022-09-09T02:04:42;16.10;99.90
27423;DHT22;14878;50.778;0.258;2022-09-09T02:06:04;15.90;99.90
27423;DHT22;14878;50.778;0.258;2022-09-09T02:07:37;15.90;99.90
27423;DHT22;14878;50.778;0.258;2022-09-09T02:08:40;15.70;99.90
27423;DHT22;14878;50.778;0.258;2022-09-09T02:09:47;15.90;99.90
27423;DHT22;14878;50.778;0.258;2022-09-09T02:11:05;15.90;99.90
27423;DHT22;14878;50.778;0.258;2022-09-09T02:12:13;15.80;99.90
27423;DHT22;14878;50.778;0.258;2022-09-09T02:13:16;15.90;99.90
27423;DHT22;14878;50.778;0.258;2022-09-09T02:14:23;15.90;99.90
27423;DHT22;14878;50.778;0.258;2022-09-09T02:16:56;16.00;99.90
27423;DHT22;14878;50.778;0.258;2022-09-09T02:17:58;16.00;99.90
27423;DHT22;14878;50.778;0.258;2022-09-09T02:20:13;15.90;99.90
27423;DHT22;14878;50.778;0.258;2022-09-09T02:21:16;16.00;99.90
27423;DHT22;14878;50.778;0.258;2022-09-09T02:22:23;16.00;99.90
27423;DHT22;14878;50.778;0.258;2022-09-09T02:23:25;16.00;99.90
27423;DHT22;14878;50.778;0.258;2022-09-09T02:24:29;16.00;99.90
27423;DHT22;14878;50.778;0.258;2022-09-09T02:25:30;16.00;99.90
27423;DHT22;14878;50.778;0.258;2022-09-09T02:26:33;16.10;99.90
27423;DHT22;14878;50.778;0.258;2022-09-09T02:27:36;15.90;99.90
27423;DHT22;14878;50.778;0.258;2022-09-09T02:28:38;15.90;99.90
27423;DHT22;14878;50.778;0.258;2022-09-09T02:29:41;16.00;99.90
27423;DHT22;14878;50.778;0.258;2022-09-09T02:30:44;16.00;99.90
27423;DHT22;14878;50.778;0.258;2022-09-09T02:31:50;15.80;99.90
27423;DHT22;14878;50.778;0.258;2022-09-09T02:32:53;15.80;99.90
27423;DHT22;14878;50.778;0.258;2022-09-09T02:34:01;15.70;99.90
27423;DHT22;14878;50.778;0.258;2022-09-09T02:35:13;15.70;99.90
27423;DHT22;14878;50.778;0.258;2022-09-09T02:36:15;15.70;99.90
27423;DHT22;14878;50.778;0.258;2022-09-09T02:37:19;15.70;99.90
27423;DHT22;14878;50.778;0.258;2022-09-09T02:38:21;15.50;99.90
27423;DHT22;14878;50.778;0.258;2022-09-09T02:39:22;15.50;99.90
27423;DHT22;14878;50.778;0.258;2022-09-09T02:40:23;15.50;99.90
27423;DHT22;14878;50.778;0.258;2022-09-09T02:41:28;15.40;99.90
27423;DHT22;14878;50.778;0.258;2022-09-09T02:42:29;15.50;99.90
27423;DHT22;14878;50.778;0.258;2022-09-09T02:43:34;15.30;99.90
27423;DHT22;14878;50.778;0.258;2022-09-09T02:44:35;15.60;99.90
27423;DHT22;14878;50.778;0.258;2022-09-09T02:46:36;15.40;99.90
27423;DHT22;14878;50.778;0.258;2022-09-09T02:50:02;15.40;99.90
27423;DHT22;14878;50.778;0.258;2022-09-09T02:51:14;15.20;99.90
27423;DHT22;14878;50.778;0.258;2022-09-09T02:52:46;15.40;99.90
27423;DHT22;14878;50.778;0.258;2022-09-09T02:55:11;15.50;99.90
27423;DHT22;14878;50.778;0.258;2022-09-09T02:56:16;15.40;99.90
27423;DHT22;14878;50.778;0.258;2022-09-09T02:57:26;15.30;99.90
27423;DHT22;14878;50.778;0.258;2022-09-09T02:58:28;15.20;99.90
27423;DHT22;14878;50.778;0.258;2022-09-09T02:59:29;15.40;99.90
27423;DHT22;14878;50.778;0.258;2022-09-09T03:00:31;15.40;99.90
27423;DHT22;14878;50.778;0.258;2022-09-09T03:01:31;15.30;99.90
27423;DHT22;14878;50.778;0.258;2022-09-09T03:02:32;15.40;99.90
27423;DHT22;14878;50.778;0.258;2022-09-09T03:03:33;15.30;99.90
27423;DHT22;14878;50.778;0.258;2022-09-09T03:04:34;15.50;99.90
27423;DHT22;14878;50.778;0.258;2022-09-09T03:05:35;15.20;99.90
27423;DHT22;14878;50.778;0.258;2022-09-09T03:06:36;16.60;99.90
27423;DHT22;14878;50.778;0.258;2022-09-09T03:07:37;15.40;99.90
27423;DHT22;14878;50.778;0.258;2022-09-09T03:08:37;15.30;99.90
27423;DHT22;14878;50.778;0.258;2022-09-09T03:09:38;15.20;99.90
27423;DHT22;14878;50.778;0.258;2022-09-09T03:10:39;15.30;99.90
27423;DHT22;14878;50.778;0.258;2022-09-09T03:11:40;15.20;99.90
27423;DHT22;14878;50.778;0.258;2022-09-09T03:12:41;15.40;99.90
27423;DHT22;14878;50.778;0.258;2022-09-09T03:13:41;15.20;99.90
27423;DHT22;14878;50.778;0.258;2022-09-09T03:14:42;15.30;99.90
27423;DHT22;14878;50.778;0.258;2022-09-09T03:15:45;15.10;99.90
27423;DHT22;14878;50.778;0.258;2022-09-09T03:16:48;15.00;99.90
27423;DHT22;14878;50.778;0.258;2022-09-09T03:17:49;15.20;99.90
27423;DHT22;14878;50.778;0.258;2022-09-09T03:18:50;15.20;99.90
27423;DHT22;14878;50.778;0.258;2022-09-09T03:19:50;15.40;99.90
27423;DHT22;14878;50.778;0.258;2022-09-09T03:20:53;15.20;99.90
27423;DHT22;14878;50.778;0.258;2022-09-09T03:21:54;14.90;99.90
27423;DHT22;14878;50.778;0.258;2022-09-09T03:22:56;15.20;99.90
27423;DHT22;14878;50.778;0.258;2022-09-09T03:23:57;14.80;99.90
27423;DHT22;14878;50.778;0.258;2022-09-09T03:24:57;14.90;99.90
27423;DHT22;14878;50.778;0.258;2022-09-09T03:25:58;15.10;99.90
27423;DHT22;14878;50.778;0.258;2022-09-09T03:26:59;15.10;99.90
27423;DHT22;14878;50.778;0.258;2022-09-09T03:28:00;15.00;99.90
27423;DHT22;14878;50.778;0.258;2022-09-09T03:29:01;15.00;99.90
27423;DHT22;14878;50.778;0.258;2022-09-09T03:30:01;15.20;99.90
27423;DHT22;14878;50.778;0.258;2022-09-09T03:31:05;15.00;99.90
27423;DHT22;14878;50.778;0.258;2022-09-09T03:32:06;14.70;99.90
27423;DHT22;14878;50.778;0.258;2022-09-09T03:33:06;15.00;99.90
27423;DHT22;14878;50.778;0.258;2022-09-09T03:34:07;14.80;99.90
27423;DHT22;14878;50.778;0.258;2022-09-09T03:35:08;15.00;99.90
27423;DHT22;14878;50.778;0.258;2022-09-09T03:36:09;15.00;99.90
27423;DHT22;14878;50.778;0.258;2022-09-09T03:37:11;14.90;99.90
27423;DHT22;14878;50.778;0.258;2022-09-09T03:38:11;15.00;99.90
27423;DHT22;14878;50.778;0.258;2022-09-09T03:39:12;15.00;99.90
27423;DHT22;14878;50.778;0.258;2022-09-09T03:40:13;15.00;99.90
27423;DHT22;14878;50.778;0.258;2022-09-09T03:41:14;17.60;99.90
27423;DHT22;14878;50.778;0.258;2022-09-09T03:42:15;15.10;99.90
27423;DHT22;14878;50.778;0.258;2022-09-09T03:43:19;14.80;99.90
27423;DHT22;14878;50.778;0.258;2022-09-09T03:44:20;14.80;99.90
27423;DHT22;14878;50.778;0.258;2022-09-09T03:45:21;14.80;99.90
27423;DHT22;14878;50.778;0.258;2022-09-09T03:46:24;14.90;99.90
27423;DHT22;14878;50.778;0.258;2022-09-09T03:47:25;14.80;99.90
27423;DHT22;14878;50.778;0.258;2022-09-09T03:48:26;14.70;99.90
27423;DHT22;14878;50.778;0.258;2022-09-09T03:49:28;14.70;99.90
27423;DHT22;14878;50.778;0.258;2022-09-09T03:50:29;15.00;99.90
27423;DHT22;14878;50.778;0.258;2022-09-09T03:51:29;14.80;99.90
27423;DHT22;14878;50.778;0.258;2022-09-09T03:52:30;14.80;99.90
27423;DHT22;14878;50.778;0.258;2022-09-09T03:53:31;14.80;99.90
27423;DHT22;14878;50.778;0.258;2022-09-09T03:54:33;14.70;99.90
27423;DHT22;14878;50.778;0.258;2022-09-09T03:55:34;14.70;99.90
27423;DHT22;14878;50.778;0.258;2022-09-09T03:56:36;14.80;99.90
27423;DHT22;14878;50.778;0.258;2022-09-09T03:57:37;14.80;99.90
27423;DHT22;14878;50.778;0.258;2022-09-09T03:58:38;15.00;99.90
27423;DHT22;14878;50.778;0.258;2022-09-09T03:59:39;14.50;99.90
27423;DHT22;14878;50.778;0.258;2022-09-09T04:00:40;14.80;99.90
27423;DHT22;14878;50.778;0.258;2022-09-09T04:01:45;14.60;99.90
27423;DHT22;14878;50.778;0.258;2022-09-09T04:02:47;14.80;99.90
27423;DHT22;14878;50.778;0.258;2022-09-09T04:03:50;14.80;99.90
27423;DHT22;14878;50.778;0.258;2022-09-09T04:04:50;14.60;99.90
27423;DHT22;14878;50.778;0.258;2022-09-09T04:05:52;14.80;99.90
27423;DHT22;14878;50.778;0.258;2022-09-09T04:06:53;14.80;99.90
27423;DHT22;14878;50.778;0.258;2022-09-09T04:07:54;14.80;99.90
27423;DHT22;14878;50.778;0.258;2022-09-09T04:08:55;14.50;99.90
27423;DHT22;14878;50.778;0.258;2022-09-09T04:09:56;14.50;99.90
27423;DHT22;14878;50.778;0.258;2022-09-09T04:10:57;17.20;99.90
27423;DHT22;14878;50.778;0.258;2022-09-09T04:11:58;14.60;99.90
27423;DHT22;14878;50.778;0.258;2022-09-09T04:12:59;14.50;99.90
27423;DHT22;14878;50.778;0.258;2022-09-09T04:14:00;14.70;99.90
27423;DHT22;14878;50.778;0.258;2022-09-09T04:15:01;14.40;99.90
27423;DHT22;14878;50.778;0.258;2022-09-09T04:16:03;14.70;99.90
27423;DHT22;14878;50.778;0.258;2022-09-09T04:17:04;15.00;99.90
27423;DHT22;14878;50.778;0.258;2022-09-09T04:18:06;14.50;99.90
27423;DHT22;14878;50.778;0.258;2022-09-09T04:19:07;14.70;99.90
27423;DHT22;14878;50.778;0.258;2022-09-09T04:20:08;14.60;99.90
27423;DHT22;14878;50.778;0.258;2022-09-09T04:21:12;14.70;99.90
27423;DHT22;14878;50.778;0.258;2022-09-09T04:22:12;14.70;99.90
27423;DHT22;14878;50.778;0.258;2022-09-09T04:23:14;14.70;99.90
27423;DHT22;14878;50.778;0.258;2022-09-09T04:24:15;14.70;99.90
27423;DHT22;14878;50.778;0.258;2022-09-09T04:25:16;14.70;99.90
27423;DHT22;14878;50.778;0.258;2022-09-09T04:26:18;14.70;99.90
27423;DHT22;14878;50.778;0.258;2022-09-09T04:27:18;14.70;99.90
27423;DHT22;14878;50.778;0.258;2022-09-09T04:28:22;14.80;99.90
27423;DHT22;14878;50.778;0.258;2022-09-09T04:29:23;14.80;99.90
27423;DHT22;14878;50.778;0.258;2022-09-09T04:30:24;14.70;99.90
27423;DHT22;14878;50.778;0.258;2022-09-09T04:31:25;14.80;99.90
27423;DHT22;14878;50.778;0.258;2022-09-09T04:32:26;14.50;99.90
27423;DHT22;14878;50.778;0.258;2022-09-09T04:33:27;14.50;99.90
27423;DHT22;14878;50.778;0.258;2022-09-09T04:34:28;14.60;99.90
27423;DHT22;14878;50.778;0.258;2022-09-09T04:35:29;14.80;99.90
27423;DHT22;14878;50.778;0.258;2022-09-09T04:36:30;14.90;99.90
27423;DHT22;14878;50.778;0.258;2022-09-09T04:37:32;14.60;99.90
27423;DHT22;14878;50.778;0.258;2022-09-09T04:38:32;14.90;99.90
27423;DHT22;14878;50.778;0.258;2022-09-09T04:39:33;14.60;99.90
27423;DHT22;14878;50.778;0.258;2022-09-09T04:40:34;14.80;99.90
27423;DHT22;14878;50.778;0.258;2022-09-09T04:41:35;14.60;99.90
27423;DHT22;14878;50.778;0.258;2022-09-09T04:42:36;15.20;99.90
27423;DHT22;14878;50.778;0.258;2022-09-09T04:43:37;15.00;99.90
27423;DHT22;14878;50.778;0.258;2022-09-09T04:44:38;14.80;99.90
27423;DHT22;14878;50.778;0.258;2022-09-09T04:45:42;14.80;99.90
27423;DHT22;14878;50.778;0.258;2022-09-09T04:46:43;15.10;99.90
27423;DHT22;14878;50.778;0.258;2022-09-09T04:47:44;15.30;99.90
27423;DHT22;14878;50.778;0.258;2022-09-09T04:48:44;15.00;99.90
27423;DHT22;14878;50.778;0.258;2022-09-09T04:49:45;14.50;99.90
27423;DHT22;14878;50.778;0.258;2022-09-09T04:51:04;15.00;99.90
27423;DHT22;14878;50.778;0.258;2022-09-09T04:52:05;14.70;99.90
27423;DHT22;14878;50.778;0.258;2022-09-09T04:53:07;14.80;99.90
27423;DHT22;14878;50.778;0.258;2022-09-09T04:54:08;15.00;99.90
27423;DHT22;14878;50.778;0.258;2022-09-09T04:55:08;15.30;99.90
27423;DHT22;14878;50.778;0.258;2022-09-09T04:56:12;15.00;99.90
27423;DHT22;14878;50.778;0.258;2022-09-09T04:57:13;14.90;99.90
27423;DHT22;14878;50.778;0.258;2022-09-09T04:58:14;15.10;99.90
27423;DHT22;14878;50.778;0.258;2022-09-09T04:59:15;15.00;99.90
27423;DHT22;14878;50.778;0.258;2022-09-09T05:00:16;15.10;99.90
27423;DHT22;14878;50.778;0.258;2022-09-09T05:01:19;14.90;99.90
27423;DHT22;14878;50.778;0.258;2022-09-09T05:02:20;15.10;99.90
27423;DHT22;14878;50.778;0.258;2022-09-09T05:03:21;15.10;99.90
27423;DHT22;14878;50.778;0.258;2022-09-09T05:04:22;15.20;99.90
27423;DHT22;14878;50.778;0.258;2022-09-09T05:05:22;15.10;99.90
27423;DHT22;14878;50.778;0.258;2022-09-09T05:06:23;15.30;99.90
27423;DHT22;14878;50.778;0.258;2022-09-09T05:07:24;15.00;99.90
27423;DHT22;14878;50.778;0.258;2022-09-09T05:08:27;15.10;99.90
27423;DHT22;14878;50.778;0.258;2022-09-09T05:09:28;15.00;99.90
27423;DHT22;14878;50.778;0.258;2022-09-09T05:10:29;15.30;99.90
27423;DHT22;14878;50.778;0.258;2022-09-09T05:11:31;15.20;99.90
27423;DHT22;14878;50.778;0.258;2022-09-09T05:12:32;15.20;99.90
27423;DHT22;14878;50.778;0.258;2022-09-09T05:13:33;15.00;99.90
27423;DHT22;14878;50.778;0.258;2022-09-09T05:14:34;15.10;99.90
27423;DHT22;14878;50.778;0.258;2022-09-09T05:15:37;15.20;99.90
27423;DHT22;14878;50.778;0.258;2022-09-09T05:16:38;15.20;99.90
27423;DHT22;14878;50.778;0.258;2022-09-09T05:17:39;15.30;99.90
27423;DHT22;14878;50.778;0.258;2022-09-09T05:18:40;15.10;99.90
27423;DHT22;14878;50.778;0.258;2022-09-09T05:19:43;15.10;99.90
27423;DHT22;14878;50.778;0.258;2022-09-09T05:20:44;15.20;99.90
27423;DHT22;14878;50.778;0.258;2022-09-09T05:21:45;14.90;99.90
27423;DHT22;14878;50.778;0.258;2022-09-09T05:22:46;15.10;99.90
27423;DHT22;14878;50.778;0.258;2022-09-09T05:23:47;15.30;99.90
27423;DHT22;14878;50.778;0.258;2022-09-09T05:24:48;15.30;99.90
27423;DHT22;14878;50.778;0.258;2022-09-09T05:25:57;15.20;99.90
27423;DHT22;14878;50.778;0.258;2022-09-09T05:26:59;15.00;99.90
27423;DHT22;14878;50.778;0.258;2022-09-09T05:28:02;15.20;99.90
27423;DHT22;14878;50.778;0.258;2022-09-09T05:29:03;15.30;99.90
27423;DHT22;14878;50.778;0.258;2022-09-09T05:30:04;15.30;99.90
27423;DHT22;14878;50.778;0.258;2022-09-09T05:31:07;15.10;99.90
27423;DHT22;14878;50.778;0.258;2022-09-09T05:32:12;15.20;99.90
27423;DHT22;14878;50.778;0.258;2022-09-09T05:33:15;15.20;99.90
27423;DHT22;14878;50.778;0.258;2022-09-09T05:34:16;15.20;99.90
27423;DHT22;14878;50.778;0.258;2022-09-09T05:35:17;15.00;99.90
27423;DHT22;14878;50.778;0.258;2022-09-09T05:36:21;15.20;99.90
27423;DHT22;14878;50.778;0.258;2022-09-09T05:37:22;15.20;99.90
27423;DHT22;14878;50.778;0.258;2022-09-09T05:38:24;15.00;99.90
27423;DHT22;14878;50.778;0.258;2022-09-09T05:39:25;15.20;99.90
27423;DHT22;14878;50.778;0.258;2022-09-09T05:40:26;15.30;99.90
27423;DHT22;14878;50.778;0.258;2022-09-09T05:41:27;15.20;99.90
27423;DHT22;14878;50.778;0.258;2022-09-09T05:42:30;14.70;99.90
27423;DHT22;14878;50.778;0.258;2022-09-09T05:43:31;15.60;99.90
27423;DHT22;14878;50.778;0.258;2022-09-09T05:44:33;15.00;99.90
27423;DHT22;14878;50.778;0.258;2022-09-09T05:45:33;15.10;99.90
27423;DHT22;14878;50.778;0.258;2022-09-09T05:46:34;15.20;99.90
27423;DHT22;14878;50.778;0.258;2022-09-09T05:47:36;15.10;99.90
27423;DHT22;14878;50.778;0.258;2022-09-09T05:48:42;15.30;99.90
27423;DHT22;14878;50.778;0.258;2022-09-09T05:49:43;15.10;99.90
27423;DHT22;14878;50.778;0.258;2022-09-09T05:50:53;15.20;99.90
27423;DHT22;14878;50.778;0.258;2022-09-09T05:51:54;14.90;99.90
27423;DHT22;14878;50.778;0.258;2022-09-09T05:52:55;15.20;99.90
27423;DHT22;14878;50.778;0.258;2022-09-09T05:53:56;15.30;99.90
27423;DHT22;14878;50.778;0.258;2022-09-09T05:55:00;15.10;99.90
27423;DHT22;14878;50.778;0.258;2022-09-09T05:56:15;15.20;99.90
27423;DHT22;14878;50.778;0.258;2022-09-09T05:58:17;15.30;99.90
27423;DHT22;14878;50.778;0.258;2022-09-09T05:59:18;15.20;99.90
27423;DHT22;14878;50.778;0.258;2022-09-09T06:00:19;15.00;99.90
27423;DHT22;14878;50.778;0.258;2022-09-09T06:01:24;15.20;99.90
27423;DHT22;14878;50.778;0.258;2022-09-09T06:02:26;15.20;99.90
27423;DHT22;14878;50.778;0.258;2022-09-09T06:03:27;15.20;99.90
27423;DHT22;14878;50.778;0.258;2022-09-09T06:04:28;15.20;99.90
27423;DHT22;14878;50.778;0.258;2022-09-09T06:05:29;15.30;99.90
27423;DHT22;14878;50.778;0.258;2022-09-09T06:06:32;15.30;99.90
27423;DHT22;14878;50.778;0.258;2022-09-09T06:07:36;15.10;99.90
27423;DHT22;14878;50.778;0.258;2022-09-09T06:08:40;15.20;99.90
27423;DHT22;14878;50.778;0.258;2022-09-09T06:09:41;15.10;99.90
27423;DHT22;14878;50.778;0.258;2022-09-09T06:10:42;15.20;99.90
27423;DHT22;14878;50.778;0.258;2022-09-09T06:11:44;15.20;99.90
27423;DHT22;14878;50.778;0.258;2022-09-09T06:12:46;15.20;99.90
27423;DHT22;14878;50.778;0.258;2022-09-09T06:13:46;15.40;99.90
27423;DHT22;14878;50.778;0.258;2022-09-09T06:14:48;15.20;99.90
27423;DHT22;14878;50.778;0.258;2022-09-09T06:15:51;15.40;99.90
27423;DHT22;14878;50.778;0.258;2022-09-09T06:16:52;15.30;99.90
27423;DHT22;14878;50.778;0.258;2022-09-09T06:17:56;15.20;99.90
27423;DHT22;14878;50.778;0.258;2022-09-09T06:18:57;15.20;99.90
27423;DHT22;14878;50.778;0.258;2022-09-09T06:19:58;15.30;99.90
27423;DHT22;14878;50.778;0.258;2022-09-09T06:21:04;15.20;99.90
27423;DHT22;14878;50.778;0.258;2022-09-09T06:22:06;15.30;99.90
27423;DHT22;14878;50.778;0.258;2022-09-09T06:23:07;15.10;99.90
27423;DHT22;14878;50.778;0.258;2022-09-09T06:24:08;15.10;99.90
27423;DHT22;14878;50.778;0.258;2022-09-09T06:25:09;15.40;99.90
27423;DHT22;14878;50.778;0.258;2022-09-09T06:26:40;15.40;99.90
27423;DHT22;14878;50.778;0.258;2022-09-09T06:27:43;15.40;99.90
27423;DHT22;14878;50.778;0.258;2022-09-09T06:28:50;15.60;99.90
27423;DHT22;14878;50.778;0.258;2022-09-09T06:29:52;15.50;99.90
27423;DHT22;14878;50.778;0.258;2022-09-09T06:31:06;15.30;99.90
27423;DHT22;14878;50.778;0.258;2022-09-09T06:32:08;15.40;99.90
27423;DHT22;14878;50.778;0.258;2022-09-09T06:33:09;15.50;99.90
27423;DHT22;14878;50.778;0.258;2022-09-09T06:34:10;15.30;99.90
27423;DHT22;14878;50.778;0.258;2022-09-09T06:35:10;15.50;99.90
27423;DHT22;14878;50.778;0.258;2022-09-09T06:36:16;14.90;99.90
27423;DHT22;14878;50.778;0.258;2022-09-09T06:37:18;15.40;99.90
27423;DHT22;14878;50.778;0.258;2022-09-09T06:38:19;15.40;99.90
27423;DHT22;14878;50.778;0.258;2022-09-09T06:39:20;15.60;99.90
27423;DHT22;14878;50.778;0.258;2022-09-09T06:40:21;15.40;99.90
27423;DHT22;14878;50.778;0.258;2022-09-09T06:41:24;15.60;99.90
27423;DHT22;14878;50.778;0.258;2022-09-09T06:42:26;15.50;99.90
27423;DHT22;14878;50.778;0.258;2022-09-09T06:43:28;15.60;99.90
27423;DHT22;14878;50.778;0.258;2022-09-09T06:44:29;15.60;99.90
27423;DHT22;14878;50.778;0.258;2022-09-09T06:45:34;15.60;99.90
27423;DHT22;14878;50.778;0.258;2022-09-09T06:46:37;15.60;99.90
27423;DHT22;14878;50.778;0.258;2022-09-09T06:47:38;15.40;99.90
27423;DHT22;14878;50.778;0.258;2022-09-09T06:48:39;15.60;99.90
27423;DHT22;14878;50.778;0.258;2022-09-09T06:50:46;15.70;99.90
27423;DHT22;14878;50.778;0.258;2022-09-09T06:51:47;15.60;99.90
27423;DHT22;14878;50.778;0.258;2022-09-09T06:52:48;14.70;99.90
27423;DHT22;14878;50.778;0.258;2022-09-09T06:53:54;15.50;99.90
27423;DHT22;14878;50.778;0.258;2022-09-09T06:54:55;15.50;99.90
27423;DHT22;14878;50.778;0.258;2022-09-09T06:55:55;15.70;99.90
27423;DHT22;14878;50.778;0.258;2022-09-09T06:56:56;15.60;99.90
27423;DHT22;14878;50.778;0.258;2022-09-09T06:57:57;15.60;99.90
27423;DHT22;14878;50.778;0.258;2022-09-09T06:59:00;15.70;99.90
27423;DHT22;14878;50.778;0.258;2022-09-09T07:00:04;15.70;99.90
27423;DHT22;14878;50.778;0.258;2022-09-09T07:01:06;15.70;99.90
27423;DHT22;14878;50.778;0.258;2022-09-09T07:02:07;15.80;99.90
27423;DHT22;14878;50.778;0.258;2022-09-09T07:03:10;15.70;99.90
27423;DHT22;14878;50.778;0.258;2022-09-09T07:04:10;15.50;99.90
27423;DHT22;14878;50.778;0.258;2022-09-09T07:05:11;15.60;99.90
27423;DHT22;14878;50.778;0.258;2022-09-09T07:06:38;15.70;99.90
27423;DHT22;14878;50.778;0.258;2022-09-09T07:07:37;15.70;99.90
27423;DHT22;14878;50.778;0.258;2022-09-09T07:08:38;15.80;99.90
27423;DHT22;14878;50.778;0.258;2022-09-09T07:09:39;15.80;99.90
27423;DHT22;14878;50.778;0.258;2022-09-09T07:10:40;15.60;99.90
27423;DHT22;14878;50.778;0.258;2022-09-09T07:11:47;15.80;99.90
27423;DHT22;14878;50.778;0.258;2022-09-09T07:12:52;15.80;99.90
27423;DHT22;14878;50.778;0.258;2022-09-09T07:13:53;15.70;99.90
27423;DHT22;14878;50.778;0.258;2022-09-09T07:14:54;15.80;99.90
27423;DHT22;14878;50.778;0.258;2022-09-09T07:15:55;16.10;99.90
27423;DHT22;14878;50.778;0.258;2022-09-09T07:17:03;15.80;99.90
27423;DHT22;14878;50.778;0.258;2022-09-09T07:18:04;14.50;99.90
27423;DHT22;14878;50.778;0.258;2022-09-09T07:19:04;15.60;99.90
27423;DHT22;14878;50.778;0.258;2022-09-09T07:20:05;15.80;99.90
27423;DHT22;14878;50.778;0.258;2022-09-09T07:21:09;16.00;99.90
27423;DHT22;14878;50.778;0.258;2022-09-09T07:22:10;15.80;99.90
27423;DHT22;14878;50.778;0.258;2022-09-09T07:23:11;15.80;99.90
27423;DHT22;14878;50.778;0.258;2022-09-09T07:24:12;15.70;99.90
27423;DHT22;14878;50.778;0.258;2022-09-09T07:25:12;15.90;99.90
27423;DHT22;14878;50.778;0.258;2022-09-09T07:26:17;15.90;99.90
27423;DHT22;14878;50.778;0.258;2022-09-09T07:27:19;15.90;99.90